This is the latest recevied weather packets stored in our database for station/object K4WCH. If no packets are shown the sender has not sent any weather packets the latest 10 day(s).
| Time | Temp. | Humidity | Pressure | Rain* | Wind** | Luminosity | Snow |
|---|---|---|---|---|---|---|---|
| 1788011446 | 31.11° C | 74% | 1019 hPa | 0 mm | - | 535 W/m² | - |
| 1788011145 | 31.11° C | 74% | 1019 hPa | 0 mm | - | 521 W/m² | - |
| 1788010840 | 30.56° C | 77% | 1019 hPa | 0 mm | - | 498 W/m² | - |
| 1788010539 | 31.11° C | 75% | 1019 hPa | 0 mm | - | 478 W/m² | - |
| 1788010234 | 31.11° C | 73% | 1018.9 hPa | 0 mm | - | 454 W/m² | - |
| 1788009933 | 31.11° C | 77% | 1019 hPa | 0 mm | - | 436 W/m² | - |
| 1788009632 | 30° C | 78% | 1019.2 hPa | 0 mm | - | 409 W/m² | - |
| 1788009327 | 30° C | 79% | 1019.1 hPa | 0 mm | - | 391 W/m² | - |
| 1788009021 | 30° C | 78% | 1019.1 hPa | 0 mm | - | 366 W/m² | - |
| 1788008717 | 30° C | 77% | 1019 hPa | 0 mm | - | 345 W/m² | - |
| 1788008416 | 31.11° C | 75% | 1019.1 hPa | 0 mm | - | 320 W/m² | - |
| 1788008113 | 30° C | 79% | 1019.1 hPa | 0 mm | - | 299 W/m² | - |
| 1788007812 | 28.89° C | 83% | 1019 hPa | 0 mm | - | 278 W/m² | - |
| 1788007512 | 28.89° C | 82% | 1019.2 hPa | 0 mm | - | 255 W/m² | - |
| 1788007212 | 29.44° C | 79% | 1019.1 hPa | 0 mm | - | 235 W/m² | - |
| 1788006911 | 28.33° C | 84% | 1018.9 hPa | 0 mm | - | 209 W/m² | - |
| 1788006611 | 26.67° C | 90% | 1018.9 hPa | 0 mm | - | 184 W/m² | - |
| 1788006306 | 25.56° C | 98% | 1018.8 hPa | 0 mm | - | 163 W/m² | - |
| 1788006004 | 25° C | 99% | 1018.5 hPa | 0 mm | - | 77 W/m² | - |
| 1788005699 | 24.44° C | 99% | 1018.8 hPa | 0 mm | - | 108 W/m² | - |
| 1788005399 | 23.89° C | 99% | 1018.7 hPa | 0 mm | - | 64 W/m² | - |
| 1788005098 | 23.89° C | 99% | 1018.6 hPa | 0 mm | - | 59 W/m² | - |
| 1788004797 | 23.89° C | 99% | 1018.5 hPa | 0 mm | - | 42 W/m² | - |
| 1788004491 | 23.89° C | 99% | 1018.7 hPa | 0 mm | - | 49 W/m² | - |
| 1788004191 | 23.33° C | 99% | 1018.6 hPa | 0 mm | - | 38 W/m² | - |
* Rain latest hour (hover to see other rain measurements)
** Current wind speed in m/s (hover to see current wind gust speed)